Latest Weather Observations for Lord Howe Island

IDN60801

Issued at 6:35 pm EDT Wednesday 22 October 2014 (issued every 30 minutes, with the page automatically refreshed every 10 minutes)

About weather observations | Map of weather stations | Latest weather observations for NSW | Other Formats
Station Details ID: 200839 Name: LORD HOWE ISLAND AERO Lat: -31.54 Lon: 159.08 Height: 5.0 m
Data from the previous 72 hours. | See also: Recent months at Lord Howe Island
Date/Time
EDT
Temp
°C
App
Temp
°C
Dew
Point
Rel
Hum
%
Delta-T
°C
Wind Press
QNH
hPa
Press
MSL
hPa
Rain
since 9 am
mm
Dir
 
Spd
km/h
Gust
km/h
Spd
kts
Gust
kts
22/06:30pm 16.8 14.5 10.6 67 3.3 ESE 13 22 7 12 1023.5 - 0.0
22/06:00pm 17.3 15.2 11.2 67 3.3 E 13 22 7 12 1023.5 1023.5 0.0
22/05:30pm 17.4 14.9 11.1 66 3.4 E 15 28 8 15 1023.4 - 0.0
22/05:00pm 17.2 14.5 10.4 64 3.6 E 15 24 8 13 1023.4 - 0.0
22/04:30pm 17.4 16.0 10.9 65 3.5 SSE 9 13 5 7 1023.4 - 0.0
22/04:00pm 17.1 15.3 10.9 67 3.3 ESE 11 22 6 12 1023.5 - 0.0
22/03:30pm 17.4 15.4 11.5 68 3.2 ESE 13 22 7 12 1023.6 - 0.0
22/03:00pm 17.4 15.1 11.7 69 3.1 E 15 26 8 14 1023.7 1023.7 0.0
22/02:30pm 17.2 12.9 10.6 65 3.5 E 24 39 13 21 1023.9 - 0.0
22/02:00pm 17.3 13.4 9.6 60 4.0 E 20 30 11 16 1024.2 - 0.0
22/01:30pm 17.6 14.5 10.4 62 3.8 ESE 17 26 9 14 1024.5 - 0.0
22/01:00pm 17.5 16.1 10.8 65 3.6 ESE 9 20 5 11 1024.7 - 0.0
22/12:30pm 18.2 16.3 10.5 60 4.1 SE 11 19 6 10 1025.0 - 0.0
22/12:00pm 17.5 14.0 11.0 65 3.5 E 20 30 11 16 1025.2 1025.2 0.0
22/11:30am 17.7 13.9 9.7 59 4.2 E 20 35 11 19 1025.5 - 0.0
22/11:00am 17.0 13.5 10.8 67 3.3 E 20 33 11 18 1025.6 - 0.0
22/10:30am 17.7 14.2 10.3 62 3.9 SE 19 41 10 22 1025.9 - 0.0
22/10:16am 18.7 13.6 10.5 59 4.4 SSE 28 39 15 21 1025.4 - 0.0
22/10:00am 17.3 16.0 11.4 68 3.2 WSW 9 20 5 11 1026.0 - 0.0
22/09:30am 18.5 13.6 10.0 57 4.5 E 26 43 14 23 1025.8 - 0.0
22/09:00am 17.7 15.6 9.7 59 4.2 ESE 11 15 6 8 1026.1 1026.1 0.0
22/08:30am 17.6 15.1 9.8 60 4.1 ESE 13 24 7 13 1026.0 - 0.0
22/08:00am 17.2 14.4 10.0 62 3.8 ESE 15 24 8 13 1026.1 - 0.0
22/07:30am 16.8 13.4 9.2 61 3.9 ESE 17 35 9 19 1026.2 - 0.0
22/07:00am 16.8 12.9 8.5 58 4.2 ESE 19 35 10 19 1026.0 - 0.0
22/06:30am 17.0 16.0 9.0 59 4.1 S 4 9 2 5 1025.9 - 0.0
22/06:00am 15.7 13.2 8.3 61 3.7 ESE 11 24 6 13 1025.7 1025.7 0.0
22/05:30am 15.5 11.9 9.7 68 3.0 E 19 30 10 16 1025.7 - 0.0
22/05:00am 15.6 13.7 7.5 58 4.0 SSE 7 26 4 14 1025.8 - 0.0
22/04:30am 15.7 13.0 7.4 57 4.1 SSE 11 22 6 12 1025.8 - 0.0
22/04:00am 15.1 12.9 7.8 61 3.6 S 9 15 5 8 1026.0 - 0.0
22/03:30am 15.4 13.3 8.2 62 3.6 SE 9 19 5 10 1026.1 - 0.0
22/03:00am 15.0 12.2 8.4 64 3.3 SSE 13 22 7 12 1026.6 1026.6 0.0
22/02:30am 15.3 12.1 8.6 64 3.4 SSE 15 32 8 17 1026.5 - 0.0
22/02:00am 15.9 13.2 7.4 57 4.2 SSE 11 26 6 14 1026.8 - 0.0
22/01:30am 15.9 10.9 9.7 66 3.2 E 26 35 14 19 1027.0 - 0.0
22/01:00am 16.3 12.9 4.2 44 5.6 S 11 20 6 11 1027.5 - 0.0
22/12:30am 16.3 12.2 6.1 51 5.0 SE 17 20 9 11 1027.7 - 0.0
22/12:00am 16.6 12.9 4.4 44 5.7 S 13 15 7 8 1027.9 1027.8 0.0
 
Date/Time
EDT
Temp
°C
App
Temp
°C
Dew
Point
Rel
Hum
%
Delta-T
°C
Wind Press
QNH
hPa
Press
MSL
hPa
Rain
since 9 am
mm
Dir
 
Spd
km/h
Gust
km/h
Spd
kts
Gust
kts
21/11:30pm 16.2 11.8 6.5 52 4.7 E 19 32 10 17 1028.2 - 0.0
21/11:00pm 16.2 12.6 8.3 59 4.0 E 17 32 9 17 1028.3 - 0.0
21/10:30pm 15.6 11.2 6.5 54 4.4 E 19 32 10 17 1028.4 - 0.0
21/10:00pm 15.9 12.6 7.9 59 4.0 ESE 15 28 8 15 1028.3 - 0.0
21/09:30pm 16.4 11.0 4.4 45 5.6 E 22 39 12 21 1028.3 - 0.0
21/09:00pm 16.3 11.3 4.5 45 5.5 E 20 35 11 19 1028.4 1028.3 0.0
21/08:31pm 16.4 9.7 5.5 48 5.2 E 30 48 16 26 1028.1 - 0.0
21/08:30pm 16.4 10.1 5.5 48 5.2 E 28 43 15 23 1028.1 - 0.0
21/08:00pm 16.3 11.0 6.9 53 4.6 E 24 41 13 22 1027.9 - 0.0
21/07:30pm 16.2 11.3 7.0 54 4.5 E 22 32 12 17 1027.7 - 0.0
21/07:14pm 16.2 9.9 7.5 56 4.3 E 30 50 16 27 1027.7 - 0.0
21/07:00pm 16.1 11.7 7.4 56 4.3 E 20 35 11 19 1027.5 - 0.0
21/06:30pm 15.7 11.8 6.9 56 4.3 ESE 17 39 9 21 1027.5 - 0.0
21/06:17pm 15.7 10.0 8.3 61 3.7 E 28 56 15 30 1027.0 - 0.0
21/06:00pm 16.1 12.5 6.9 54 4.5 SSE 15 24 8 13 1027.1 1027.1 0.0
21/05:44pm 16.2 11.3 8.3 59 4.0 SE 24 57 13 31 1027.1 - 0.0
21/05:43pm 16.2 8.8 8.3 59 4.0 E 37 57 20 31 1026.8 - 0.0
21/05:41pm 16.2 8.1 8.5 60 3.9 E 41 54 22 29 1026.4 - 0.0
21/05:30pm 16.3 12.6 7.9 57 4.2 SE 17 39 9 21 1026.9 - 0.0
21/05:00pm 16.0 12.4 8.2 60 3.9 SSE 17 30 9 16 1026.9 - 0.0
21/04:30pm 15.2 11.6 9.8 70 2.8 ESE 19 33 10 18 1027.0 - 0.0
21/04:00pm 16.3 11.5 8.9 61 3.8 E 24 41 13 22 1026.4 - 0.0
21/03:30pm 16.7 13.4 8.2 57 4.3 S 15 20 8 11 1026.6 - 0.0
21/03:00pm 16.6 13.1 8.8 60 4.0 E 17 20 9 11 1026.6 1026.6 0.0
21/02:30pm 17.1 12.0 7.7 54 4.7 E 24 43 13 23 1026.7 - 0.0
21/02:04pm 16.9 11.2 8.4 57 4.3 E 28 52 15 28 1026.7 - 0.0
21/02:00pm 16.9 12.9 9.1 60 4.0 E 20 35 11 19 1027.0 - 0.0
21/01:30pm 16.9 12.8 8.7 58 4.2 ESE 20 43 11 23 1027.1 - 0.0
21/01:15pm 18.0 12.1 7.4 50 5.3 E 28 46 15 25 1027.0 - 0.0
21/01:00pm 17.1 12.9 8.2 56 4.5 SSE 20 28 11 15 1027.3 - 0.0
21/12:39pm 16.9 9.8 8.0 55 4.5 E 35 54 19 29 1027.3 - 0.0
21/12:36pm 16.7 9.9 7.7 55 4.5 E 33 50 18 27 1027.0 - 0.0
21/12:30pm 17.1 13.1 8.2 56 4.5 SE 19 30 10 16 1027.5 - 0.0
21/12:00pm 17.4 12.9 10.0 62 3.9 E 24 59 13 32 1027.5 1027.4 0.0
21/11:52am 18.5 12.7 8.1 50 5.3 E 28 48 15 26 1027.1 - 0.0
21/11:48am 18.5 12.7 8.1 50 5.3 ENE 28 41 15 22 1027.3 - 0.0
21/11:30am 18.0 15.2 8.4 53 4.9 SW 13 22 7 12 1027.7 - 0.0
21/11:00am 18.4 13.2 7.2 48 5.6 E 24 43 13 23 1027.5 - 0.0
21/10:30am 16.9 13.8 8.7 58 4.2 WSW 15 32 8 17 1027.8 - 0.0
21/10:00am 17.3 14.8 8.2 55 4.6 SSE 11 22 6 12 1028.0 - 0.0
21/09:30am 17.2 13.0 7.4 52 4.9 SW 19 28 10 15 1027.9 - 0.0
21/09:00am 16.8 13.1 7.8 55 4.5 ESE 17 33 9 18 1027.8 1027.7 9.8
21/08:30am 16.7 14.0 8.9 60 4.0 ESE 13 24 7 13 1027.7 - 9.8
21/08:00am 16.6 11.5 9.2 61 3.8 E 26 44 14 24 1027.1 - 9.8
21/07:30am 17.0 13.2 7.6 54 4.7 SE 17 28 9 15 1027.0 - 9.8
21/07:00am 16.8 12.4 6.6 51 5.0 SE 19 32 10 17 1026.6 - 9.8
21/06:30am 16.4 11.8 6.6 52 4.8 SE 20 32 11 17 1026.3 - 9.8
21/06:00am 16.3 12.0 7.9 57 4.2 SE 20 48 11 26 1025.9 1025.9 9.8
21/05:30am 16.5 12.1 9.1 61 3.8 SE 22 43 12 23 1025.7 - 9.8
21/05:00am 16.6 12.7 9.5 63 3.7 ESE 20 32 11 17 1025.3 - 9.8
21/04:30am 16.6 13.2 10.5 67 3.2 SE 19 28 10 15 1025.0 - 9.8
21/04:00am 16.5 13.1 10.6 68 3.1 SE 19 32 10 17 1024.9 - 9.8
21/03:30am 16.7 13.6 11.5 71 2.8 SE 19 32 10 17 1024.9 - 9.8
21/03:00am 16.5 12.6 10.9 69 3.0 ESE 22 39 12 21 1024.9 1024.9 9.8
21/02:41am 16.2 12.5 11.6 74 2.5 SE 22 39 12 21 1024.9 - 9.8
21/02:30am 16.3 12.7 11.9 75 2.4 SE 22 39 12 21 1025.0 - 9.8
21/02:00am 15.9 12.8 13.4 85 1.4 SE 22 35 12 19 1025.0 - 8.8
21/01:51am 16.0 12.9 13.5 85 1.4 ESE 22 37 12 20 1025.1 - 8.4
21/01:38am 16.1 11.8 13.2 83 1.6 SE 28 48 15 26 1025.2 - 8.2
21/01:30am 15.8 12.1 13.8 88 1.1 ESE 26 39 14 21 1025.1 - 8.2
21/01:22am 15.9 11.8 13.9 88 1.1 ESE 28 50 15 27 1025.1 - 8.0
21/01:00am 16.3 13.2 14.5 89 1.0 SE 24 39 13 21 1025.3 - 6.4
21/12:30am 16.5 12.8 15.1 91 0.8 ESE 28 43 15 23 1025.2 - 4.0
21/12:00am 17.0 14.7 15.6 91 0.8 ESE 22 41 12 22 1025.3 1025.3 0.4
 
Date/Time
EDT
Temp
°C
App
Temp
°C
Dew
Point
Rel
Hum
%
Delta-T
°C
Wind Press
QNH
hPa
Press
MSL
hPa
Rain
since 9 am
mm
Dir
 
Spd
km/h
Gust
km/h
Spd
kts
Gust
kts
20/11:54pm 17.3 15.3 15.4 88 1.1 ESE 20 33 11 18 1025.3 - 0.0
20/11:48pm 17.9 17.6 15.5 86 1.4 S 11 19 6 10 1025.3 - 0.0
20/11:30pm 18.5 16.7 16.0 85 1.5 WSW 20 28 11 15 1025.3 - 0.0
20/11:00pm 18.8 17.0 14.5 76 2.5 WSW 17 22 9 12 1025.3 - 0.0
20/10:30pm 18.9 16.5 13.8 72 2.9 WSW 19 24 10 13 1025.4 - 0.0
20/10:00pm 18.6 16.0 13.3 71 3.0 WSW 19 22 10 12 1025.2 - 0.0
20/09:30pm 18.4 15.7 13.0 71 3.0 WSW 19 22 10 12 1025.2 - 0.0
20/09:00pm 17.2 16.4 12.9 76 2.4 SW 9 13 5 7 1024.9 1024.9 0.0
20/08:30pm 16.7 15.8 12.5 76 2.3 SSW 9 13 5 7 1024.7 - 0.0
20/08:00pm 17.3 16.3 12.4 73 2.7 SW 9 15 5 8 1024.5 - 0.0
20/07:30pm 17.6 16.2 12.3 71 2.9 SW 11 15 6 8 1024.5 - 0.0
20/07:00pm 17.6 16.4 11.7 68 3.2 SSW 9 13 5 7 1024.2 - 0.0
20/06:30pm 18.0 16.8 11.6 66 3.5 SW 9 13 5 7 1024.1 - 0.0
20/06:00pm 18.4 16.8 11.4 63 3.8 SW 11 17 6 9 1024.2 1024.2 0.0
20/05:30pm 18.8 16.4 11.5 62 4.0 SW 15 20 8 11 1024.3 - 0.0
20/05:00pm 19.1 16.7 11.4 61 4.2 SW 15 22 8 12 1024.4 - 0.0
20/04:30pm 19.3 16.0 10.8 58 4.6 SW 19 26 10 14 1024.5 - 0.0
20/04:00pm 19.9 16.6 11.7 59 4.5 SW 20 26 11 14 1024.5 - 0.0
20/03:30pm 19.7 16.4 10.8 56 4.8 WSW 19 24 10 13 1024.6 - 0.0
20/03:00pm 20.1 16.8 10.9 55 5.0 SW 19 26 10 14 1024.8 1024.8 0.0
20/02:30pm 20.0 16.5 10.8 55 5.0 WSW 20 26 11 14 1025.1 - 0.0
20/02:00pm 19.4 16.4 10.7 57 4.7 WSW 17 24 9 13 1025.2 - 0.0
20/01:30pm 19.7 16.6 10.4 55 5.0 WSW 17 24 9 13 1025.1 - 0.0
20/01:00pm 19.8 17.3 11.0 57 4.8 WSW 15 20 8 11 1025.3 - 0.0
20/12:30pm 20.0 17.4 10.8 55 5.0 WSW 15 24 8 13 1025.6 - 0.0
20/12:00pm 19.7 17.4 10.4 55 5.0 WSW 13 17 7 9 1025.6 1025.6 0.0
20/11:30am 19.9 17.3 10.6 55 5.0 WSW 15 19 8 10 1025.9 - 0.0
20/11:00am 19.2 15.9 9.7 54 5.0 WSW 17 22 9 12 1026.1 - 0.0
20/10:30am 19.3 17.1 9.4 52 5.2 SW 11 15 6 8 1026.2 - 0.0
20/10:00am 19.5 17.2 10.4 55 4.9 W 13 17 7 9 1026.3 - 0.0
20/09:30am 18.7 16.2 9.6 55 4.8 WSW 13 15 7 8 1026.2 - 0.0
20/09:00am 18.5 16.9 8.6 52 5.1 SW 7 13 4 7 1026.1 1026.1 0.0
20/08:30am 18.7 16.6 9.6 55 4.8 NE 11 15 6 8 1026.0 - 0.0
20/08:00am 18.2 16.2 8.7 54 4.9 ENE 9 13 5 7 1025.7 - 0.0
20/07:30am 17.5 15.8 8.5 55 4.6 NE 7 9 4 5 1025.8 - 0.0
20/07:00am 15.2 15.4 10.4 73 2.5 CALM 0 0 0 0 1025.7 - 0.0
20/06:30am 13.0 13.0 9.9 81 1.6 CALM 0 0 0 0 1025.7 - 0.0
20/06:00am 10.8 10.3 7.9 82 1.4 CALM 0 0 0 0 1025.6 1025.6 0.0
20/05:30am 10.6 10.1 7.9 83 1.3 CALM 0 0 0 0 1025.4 - 0.0
20/05:00am 11.0 10.4 7.2 77 1.8 CALM 0 0 0 0 1025.2 - 0.0
20/04:30am 12.1 11.6 7.8 75 2.1 CALM 0 0 0 0 1024.8 - 0.0
20/04:00am 12.9 12.1 8.0 72 2.4 N 2 9 1 5 1024.7 - 0.0
20/03:30am 14.6 13.6 7.5 62 3.5 ESE 2 7 1 4 1024.9 - 0.0
20/03:00am 16.1 12.4 6.2 52 4.8 E 15 20 8 11 1025.1 1025.1 0.0
20/02:30am 16.0 13.3 7.5 57 4.2 ENE 11 17 6 9 1025.6 - 0.0
20/02:00am 16.2 14.1 6.8 53 4.6 ESE 7 13 4 7 1026.0 - 0.0
20/01:30am 16.5 14.3 6.4 51 4.9 ESE 7 13 4 7 1026.2 - 0.0
20/01:00am 16.4 13.1 6.6 52 4.8 E 13 19 7 10 1026.5 - 0.0
20/12:30am 16.2 14.6 7.8 57 4.2 SE 6 9 3 5 1026.7 - 0.0
20/12:00am 16.4 14.3 6.8 53 4.7 SSE 7 11 4 6 1026.9 1026.9 0.0
 
Date/Time
EDT
Temp
°C
App
Temp
°C
Dew
Point
Rel
Hum
%
Delta-T
°C
Wind Press
QNH
hPa
Press
MSL
hPa
Rain
since 9 am
mm
Dir
 
Spd
km/h
Gust
km/h
Spd
kts
Gust
kts
19/11:30pm 16.0 14.4 8.0 59 4.0 SE 6 9 3 5 1027.0 - 0.0
19/11:00pm 16.1 13.7 6.9 54 4.5 E 9 17 5 9 1027.3 - 0.0
19/10:30pm 16.4 14.4 7.1 54 4.6 SE 7 9 4 5 1027.3 - 0.0
19/10:00pm 16.4 13.8 6.3 51 4.9 SE 9 13 5 7 1027.3 - 0.0
19/09:30pm 16.0 13.3 5.7 50 4.9 SE 9 13 5 7 1027.3 - 0.0
19/09:00pm 15.9 13.3 6.1 52 4.7 SE 9 15 5 8 1027.3 1027.2 0.0
19/08:30pm 15.9 13.3 6.1 52 4.7 SE 9 13 5 7 1027.0 - 0.0
19/08:00pm 15.5 13.3 6.1 53 4.5 E 7 11 4 6 1026.8 - 0.0
19/07:30pm 15.8 13.9 6.8 55 4.4 E 6 13 3 7 1026.6 - 0.0
19/07:00pm 16.0 14.1 6.5 53 4.6 S 6 11 3 6 1026.3 - 0.0

Other Formats:

Comma delimited format used in spreadsheet applications
http://www.bom.gov.au/fwo/IDN60801/IDN60801.94995.axf

JavaScript Object Notation format (JSON) in row-major order
http://www.bom.gov.au/fwo/IDN60801/IDN60801.94995.json